Time;durP1;ratioP1;P1;durP2;ratioP2;P2;SDS_P1;SDS_P2;PMS_P1;PMS_P2;Temp;Humidity;BMP_temperature;BMP_pressure;BME280_temperature;BME280_humidity;BME280_pressure;Samples;Min_cycle;Max_cycle;Signal;HPM_P1;HPM_P2
2021/07/20 00:01:31;;;;;;;;;;;23.50;65.80;;;;;;5023590;28;83355;-47
2021/07/20 00:03:56;;;;;;;;;;;23.50;65.70;;;;;;5026936;28;82159;-47
2021/07/20 00:06:22;;;;;;;;;;;23.50;66.00;;;;;;5023031;28;84948;-47
2021/07/20 00:08:47;;;;;;;;;;;23.50;65.70;;;;;;5022494;28;83077;-47
2021/07/20 00:11:13;;;;;;;;;;;23.50;65.80;;;;;;5023429;28;83412;-48
2021/07/20 00:13:39;;;;;;;;;;;23.50;65.80;;;;;;5021535;28;84587;-47
2021/07/20 00:16:05;;;;;;;;;;;23.50;65.80;;;;;;5021325;28;82123;-47
2021/07/20 00:18:33;;;;;;;;;;;23.50;65.80;;;;;;5019543;28;84006;-47
2021/07/20 00:21:00;;;;;;;;;;;23.50;65.80;;;;;;5023177;28;84802;-47
2021/07/20 00:23:25;;;;;;;;;;;23.50;65.80;;;;;;5023202;28;83143;-47
2021/07/20 00:25:51;;;;;;;;;;;23.50;65.80;;;;;;5026134;28;84040;-47
2021/07/20 00:28:17;;;;;;;;;;;23.50;65.90;;;;;;5023190;28;82106;-47
2021/07/20 00:30:44;;;;;;;;;;;23.40;65.90;;;;;;5021611;28;82652;-48
2021/07/20 00:33:09;;;;;;;;;;;23.40;65.80;;;;;;5019403;28;85888;-47
2021/07/20 00:35:35;;;;;;;;;;;23.40;65.90;;;;;;5020935;28;82191;-47
2021/07/20 00:38:01;;;;;;;;;;;23.40;65.90;;;;;;5020769;28;82096;-47
2021/07/20 00:40:31;;;;;;;;;;;23.40;65.90;;;;;;5019729;28;82713;-47
2021/07/20 00:42:57;;;;;;;;;;;23.40;65.90;;;;;;5021143;28;82057;-47
2021/07/20 00:45:23;;;;;;;;;;;23.40;65.90;;;;;;5020800;28;82705;-47
2021/07/20 00:47:48;;;;;;;;;;;23.30;65.90;;;;;;5022246;28;82414;-48
2021/07/20 00:50:15;;;;;;;;;;;23.30;65.90;;;;;;5019324;28;83566;-47
2021/07/20 00:52:41;;;;;;;;;;;23.30;65.90;;;;;;5018966;28;84926;-47
2021/07/20 00:55:07;;;;;;;;;;;23.30;65.90;;;;;;5019381;28;83861;-47
2021/07/20 00:57:33;;;;;;;;;;;23.30;65.90;;;;;;5022409;28;83987;-48
2021/07/20 00:59:58;;;;;;;;;;;23.30;66.00;;;;;;5023068;28;84230;-48
2021/07/20 01:02:24;;;;;;;;;;;23.30;66.00;;;;;;5022609;28;82112;-47
2021/07/20 01:04:50;;;;;;;;;;;23.30;66.00;;;;;;5022887;28;82375;-48
2021/07/20 01:07:17;;;;;;;;;;;23.30;66.00;;;;;;5022849;28;83515;-47
2021/07/20 01:09:43;;;;;;;;;;;23.20;65.90;;;;;;5025199;28;82134;-47
2021/07/20 01:12:09;;;;;;;;;;;23.30;66.00;;;;;;5022550;28;83213;-48
2021/07/20 01:14:35;;;;;;;;;;;23.20;66.00;;;;;;5021834;28;81386;-48
2021/07/20 01:17:01;;;;;;;;;;;23.20;66.00;;;;;;5021535;28;82888;-47
2021/07/20 01:19:29;;;;;;;;;;;23.20;66.00;;;;;;5021186;28;82890;-47
2021/07/20 01:21:57;;;;;;;;;;;23.20;66.00;;;;;;5017924;28;82974;-47
2021/07/20 01:24:23;;;;;;;;;;;23.20;66.10;;;;;;5021637;28;82093;-47
2021/07/20 01:26:49;;;;;;;;;;;23.20;66.10;;;;;;5019966;28;82729;-47
2021/07/20 01:29:15;;;;;;;;;;;23.20;66.10;;;;;;5022030;28;82128;-47
2021/07/20 01:31:41;;;;;;;;;;;23.20;66.10;;;;;;5022495;28;82811;-48
2021/07/20 01:34:08;;;;;;;;;;;23.20;66.10;;;;;;5025509;28;84021;-47
2021/07/20 01:36:34;;;;;;;;;;;23.20;66.10;;;;;;5022724;28;83692;-47
2021/07/20 01:39:02;;;;;;;;;;;23.20;66.10;;;;;;5021858;28;81552;-47
2021/07/20 01:41:30;;;;;;;;;;;23.20;66.20;;;;;;5024234;28;82080;-47
2021/07/20 01:43:59;;;;;;;;;;;23.10;66.10;;;;;;5021831;28;82533;-48
2021/07/20 01:46:26;;;;;;;;;;;23.10;66.20;;;;;;5020524;28;86205;-47
2021/07/20 01:48:53;;;;;;;;;;;23.10;66.20;;;;;;5025707;28;82129;-48
2021/07/20 01:51:19;;;;;;;;;;;23.10;66.20;;;;;;5027338;28;83400;-47
2021/07/20 01:53:45;;;;;;;;;;;23.10;66.20;;;;;;5023962;28;82161;-47
2021/07/20 01:56:11;;;;;;;;;;;23.10;66.20;;;;;;5023069;28;82618;-47
2021/07/20 01:58:41;;;;;;;;;;;23.10;66.20;;;;;;5021539;28;84252;-47
2021/07/20 02:01:09;;;;;;;;;;;23.10;66.20;;;;;;5023350;28;82151;-48
2021/07/20 02:09:04;;;;;;;;;;;23.10;66.30;;;;;;5021495;28;82092;-47
2021/07/20 02:11:33;;;;;;;;;;;23.00;66.30;;;;;;5022447;28;83003;-47
2021/07/20 02:14:02;;;;;;;;;;;23.00;66.20;;;;;;5026188;28;84839;-47
2021/07/20 02:16:29;;;;;;;;;;;23.00;66.30;;;;;;5025737;28;83968;-47
2021/07/20 02:19:07;;;;;;;;;;;23.00;66.30;;;;;;5024040;28;82841;-48
2021/07/20 02:21:33;;;;;;;;;;;23.00;66.30;;;;;;5021341;28;82096;-48
2021/07/20 02:23:59;;;;;;;;;;;23.00;66.30;;;;;;5025970;28;82251;-48
2021/07/20 02:26:25;;;;;;;;;;;23.00;66.40;;;;;;5024698;28;83033;-47
2021/07/20 02:28:52;;;;;;;;;;;23.00;66.40;;;;;;5025854;28;81363;-47
2021/07/20 02:31:18;;;;;;;;;;;23.00;66.40;;;;;;5024870;28;82122;-48
2021/07/20 02:33:44;;;;;;;;;;;23.00;66.40;;;;;;5024267;28;82702;-47
2021/07/20 02:36:10;;;;;;;;;;;23.00;66.40;;;;;;5025668;28;83079;-47
2021/07/20 02:38:40;;;;;;;;;;;22.90;66.40;;;;;;5021722;28;83106;-47
2021/07/20 02:41:05;;;;;;;;;;;22.90;66.40;;;;;;5023029;28;82148;-47
2021/07/20 02:43:32;;;;;;;;;;;22.90;66.40;;;;;;5021684;28;82824;-47
2021/07/20 02:45:58;;;;;;;;;;;22.90;66.40;;;;;;5022498;28;83870;-47
2021/07/20 02:48:23;;;;;;;;;;;22.90;66.50;;;;;;5025460;28;82124;-47
2021/07/20 02:50:52;;;;;;;;;;;22.90;66.50;;;;;;5024713;28;82516;-46
2021/07/20 02:53:19;;;;;;;;;;;22.90;66.50;;;;;;5025877;28;82170;-48
2021/07/20 02:55:47;;;;;;;;;;;22.90;66.50;;;;;;5023524;28;82092;-47
2021/07/20 02:58:14;;;;;;;;;;;22.90;66.50;;;;;;5028230;28;82569;-49
2021/07/20 03:00:39;;;;;;;;;;;22.90;66.50;;;;;;5023137;28;83104;-47
2021/07/20 03:03:08;;;;;;;;;;;22.90;66.60;;;;;;5023028;28;83085;-47
2021/07/20 03:05:34;;;;;;;;;;;22.90;66.60;;;;;;5023682;28;83080;-48
2021/07/20 03:08:00;;;;;;;;;;;22.80;66.50;;;;;;5025434;28;82095;-49
2021/07/20 03:10:28;;;;;;;;;;;22.80;66.50;;;;;;5023479;28;83469;-47
2021/07/20 03:12:55;;;;;;;;;;;22.80;66.60;;;;;;5020754;28;83344;-47
2021/07/20 03:15:21;;;;;;;;;;;22.80;66.60;;;;;;5023644;28;82207;-47
2021/07/20 03:17:46;;;;;;;;;;;22.80;66.60;;;;;;5026335;28;81373;-47
2021/07/20 03:20:13;;;;;;;;;;;22.80;66.60;;;;;;5023033;28;82142;-49
2021/07/20 03:22:40;;;;;;;;;;;22.80;66.60;;;;;;5022554;28;82255;-47
2021/07/20 03:25:06;;;;;;;;;;;22.80;66.60;;;;;;5019975;28;84102;-47
2021/07/20 03:27:32;;;;;;;;;;;22.80;66.60;;;;;;5021588;28;83117;-47
2021/07/20 03:29:59;;;;;;;;;;;22.80;66.60;;;;;;5024194;28;82589;-47
2021/07/20 03:32:26;;;;;;;;;;;22.80;66.60;;;;;;5020967;28;84519;-47
2021/07/20 03:34:51;;;;;;;;;;;22.70;66.60;;;;;;5020037;28;83193;-48
2021/07/20 03:37:18;;;;;;;;;;;22.70;66.60;;;;;;5024303;28;83582;-47
2021/07/20 03:39:44;;;;;;;;;;;22.70;66.60;;;;;;5026738;28;83523;-48
2021/07/20 03:42:10;;;;;;;;;;;22.70;67.20;;;;;;5023821;28;82630;-48
2021/07/20 03:44:36;;;;;;;;;;;22.70;66.60;;;;;;5021807;28;84403;-47
2021/07/20 03:47:02;;;;;;;;;;;22.70;66.70;;;;;;5021641;28;82200;-47
2021/07/20 03:49:28;;;;;;;;;;;22.70;66.70;;;;;;5021060;28;83791;-47
2021/07/20 03:51:55;;;;;;;;;;;22.70;66.70;;;;;;5019954;28;82753;-47
2021/07/20 03:54:21;;;;;;;;;;;22.70;66.70;;;;;;5022996;28;82146;-47
2021/07/20 03:56:48;;;;;;;;;;;22.60;66.70;;;;;;5021831;28;83870;-47
2021/07/20 03:59:14;;;;;;;;;;;22.70;66.70;;;;;;5019812;28;82663;-47
2021/07/20 04:01:40;;;;;;;;;;;22.70;66.80;;;;;;5022767;28;82149;-47
2021/07/20 04:04:07;;;;;;;;;;;22.70;66.70;;;;;;5024164;28;83196;-48
2021/07/20 04:06:32;;;;;;;;;;;22.70;66.80;;;;;;5024704;28;81365;-47
2021/07/20 04:08:59;;;;;;;;;;;22.60;66.70;;;;;;5023095;28;82279;-47
2021/07/20 04:11:25;;;;;;;;;;;22.60;66.80;;;;;;5021607;28;82574;-47
2021/07/20 04:13:52;;;;;;;;;;;22.60;66.80;;;;;;5020727;28;83067;-47
2021/07/20 04:16:18;;;;;;;;;;;22.60;66.80;;;;;;5021812;28;84501;-47
2021/07/20 04:18:44;;;;;;;;;;;22.60;66.90;;;;;;5020507;28;83425;-47
2021/07/20 04:21:10;;;;;;;;;;;22.60;67.00;;;;;;5022847;28;82325;-47
2021/07/20 04:23:36;;;;;;;;;;;22.60;66.90;;;;;;5026785;28;82443;-48
2021/07/20 04:26:02;;;;;;;;;;;22.60;67.00;;;;;;5022395;28;82159;-47
2021/07/20 04:28:27;;;;;;;;;;;22.60;67.00;;;;;;5021452;28;82194;-47
2021/07/20 04:30:53;;;;;;;;;;;22.60;67.00;;;;;;5022097;28;81820;-48
2021/07/20 04:33:27;;;;;;;;;;;22.60;67.00;;;;;;5020621;28;82065;-47
2021/07/20 04:35:54;;;;;;;;;;;22.50;66.90;;;;;;5021703;28;83616;-47
2021/07/20 04:38:20;;;;;;;;;;;22.60;67.00;;;;;;5019494;28;85150;-47
2021/07/20 04:40:46;;;;;;;;;;;22.50;66.90;;;;;;5019513;28;82187;-47
2021/07/20 04:43:12;;;;;;;;;;;22.60;67.00;;;;;;5019531;28;82432;-47
2021/07/20 04:45:41;;;;;;;;;;;22.50;66.90;;;;;;5022202;28;84466;-47
2021/07/20 04:48:07;;;;;;;;;;;22.50;67.00;;;;;;5020874;28;83039;-47
2021/07/20 04:50:33;;;;;;;;;;;22.50;67.00;;;;;;5019318;28;83174;-47
2021/07/20 04:52:59;;;;;;;;;;;22.50;67.00;;;;;;5019589;28;82165;-47
2021/07/20 04:55:26;;;;;;;;;;;22.50;67.00;;;;;;5019132;28;83919;-47
2021/07/20 04:57:52;;;;;;;;;;;22.50;67.00;;;;;;5022283;28;84355;-47
2021/07/20 05:00:18;;;;;;;;;;;22.50;67.00;;;;;;5021816;28;82103;-47
2021/07/20 05:02:47;;;;;;;;;;;22.50;67.00;;;;;;5020262;28;83061;-47
2021/07/20 05:05:14;;;;;;;;;;;22.50;67.10;;;;;;5021397;28;84793;-47
2021/07/20 05:07:40;;;;;;;;;;;22.50;67.00;;;;;;5024271;28;82088;-48
2021/07/20 05:10:06;;;;;;;;;;;22.50;67.10;;;;;;5022888;28;84467;-48
2021/07/20 05:12:31;;;;;;;;;;;22.50;67.10;;;;;;5026881;28;82275;-49
2021/07/20 05:14:57;;;;;;;;;;;22.50;67.10;;;;;;5026039;28;83940;-48
2021/07/20 05:17:23;;;;;;;;;;;22.50;67.10;;;;;;5026247;28;82676;-47
2021/07/20 05:19:49;;;;;;;;;;;22.50;67.10;;;;;;5026875;28;81430;-47
2021/07/20 05:22:14;;;;;;;;;;;22.50;67.10;;;;;;5025771;28;82215;-47
2021/07/20 05:24:40;;;;;;;;;;;22.50;67.10;;;;;;5025397;28;84870;-48
2021/07/20 05:27:08;;;;;;;;;;;22.40;67.00;;;;;;5028323;28;83886;-47
2021/07/20 05:29:34;;;;;;;;;;;22.50;67.20;;;;;;5023893;28;82519;-47
2021/07/20 05:32:01;;;;;;;;;;;22.40;67.10;;;;;;5023191;28;82133;-49
2021/07/20 05:34:26;;;;;;;;;;;22.40;67.10;;;;;;5023560;28;83605;-49
2021/07/20 05:36:52;;;;;;;;;;;22.40;67.10;;;;;;5023645;28;82109;-47
2021/07/20 05:39:17;;;;;;;;;;;22.40;67.10;;;;;;5023888;28;83028;-47
2021/07/20 05:41:43;;;;;;;;;;;22.40;67.10;;;;;;5026621;28;82768;-50
2021/07/20 05:44:12;;;;;;;;;;;22.40;67.10;;;;;;5024844;28;82255;-47
2021/07/20 05:46:39;;;;;;;;;;;22.40;67.10;;;;;;5023172;28;82135;-47
2021/07/20 05:49:04;;;;;;;;;;;22.40;67.10;;;;;;5024714;28;82698;-47
2021/07/20 05:51:30;;;;;;;;;;;22.40;67.10;;;;;;5021659;28;83026;-47
2021/07/20 05:53:56;;;;;;;;;;;22.40;67.20;;;;;;5021345;28;84127;-47
2021/07/20 05:56:25;;;;;;;;;;;22.40;67.20;;;;;;5024649;28;83834;-47
2021/07/20 05:58:51;;;;;;;;;;;22.40;67.20;;;;;;5021149;28;82188;-47
2021/07/20 06:01:17;;;;;;;;;;;22.40;67.20;;;;;;5022326;28;83227;-47
2021/07/20 06:03:43;;;;;;;;;;;22.40;67.20;;;;;;5023853;28;83731;-47
2021/07/20 06:06:09;;;;;;;;;;;22.40;67.20;;;;;;5025788;28;82088;-48
2021/07/20 06:08:34;;;;;;;;;;;22.40;67.20;;;;;;5026085;28;84161;-47
2021/07/20 06:11:04;;;;;;;;;;;22.40;67.30;;;;;;5027919;28;83690;-47
2021/07/20 06:13:35;;;;;;;;;;;22.40;67.30;;;;;;5021908;28;84338;-47
2021/07/20 06:16:00;;;;;;;;;;;22.40;67.30;;;;;;5024983;28;83966;-47
2021/07/20 06:18:26;;;;;;;;;;;22.40;67.30;;;;;;5025401;28;82129;-47
2021/07/20 06:20:53;;;;;;;;;;;22.40;67.30;;;;;;5025475;28;82118;-48
2021/07/20 06:23:20;;;;;;;;;;;22.40;67.40;;;;;;5022005;28;82177;-48
2021/07/20 06:25:46;;;;;;;;;;;22.40;67.40;;;;;;5021110;28;82105;-47
2021/07/20 06:28:14;;;;;;;;;;;22.40;67.40;;;;;;5025878;28;82183;-47
2021/07/20 06:30:39;;;;;;;;;;;22.40;67.40;;;;;;5023287;28;83148;-47
2021/07/20 06:33:06;;;;;;;;;;;22.40;67.40;;;;;;5026795;28;81363;-47
2021/07/20 06:35:31;;;;;;;;;;;22.40;67.50;;;;;;5021240;28;82453;-47
2021/07/20 06:37:57;;;;;;;;;;;22.40;67.40;;;;;;5021103;28;82123;-47
2021/07/20 06:40:23;;;;;;;;;;;22.40;67.40;;;;;;5023344;28;84581;-47
2021/07/20 06:42:49;;;;;;;;;;;22.40;67.40;;;;;;5022779;28;83588;-47
2021/07/20 06:45:15;;;;;;;;;;;22.40;67.40;;;;;;5024392;28;82092;-47
2021/07/20 06:47:43;;;;;;;;;;;22.40;67.40;;;;;;5023503;28;82378;-47
2021/07/20 06:50:09;;;;;;;;;;;22.40;67.40;;;;;;5020168;28;84943;-47
2021/07/20 06:52:35;;;;;;;;;;;22.40;67.50;;;;;;5024956;28;82168;-47
2021/07/20 06:55:01;;;;;;;;;;;22.40;67.50;;;;;;5025954;28;84210;-47
2021/07/20 06:57:27;;;;;;;;;;;22.40;67.50;;;;;;5022948;28;81417;-47
2021/07/20 06:59:55;;;;;;;;;;;22.40;67.50;;;;;;5020498;28;82095;-48
2021/07/20 07:02:21;;;;;;;;;;;22.40;67.50;;;;;;5023563;28;83065;-47
2021/07/20 07:04:47;;;;;;;;;;;22.40;67.50;;;;;;5020846;28;83107;-47
2021/07/20 07:07:13;;;;;;;;;;;22.30;67.40;;;;;;5020737;28;82827;-47
2021/07/20 07:09:41;;;;;;;;;;;22.40;67.50;;;;;;5025167;28;84747;-47
2021/07/20 07:12:07;;;;;;;;;;;22.40;67.50;;;;;;5022440;28;82248;-48
2021/07/20 07:14:32;;;;;;;;;;;22.40;67.50;;;;;;5021128;28;83564;-47
2021/07/20 07:16:58;;;;;;;;;;;22.40;67.40;;;;;;5024407;28;82691;-47
2021/07/20 07:19:24;;;;;;;;;;;22.40;67.50;;;;;;5022548;28;82979;-47
2021/07/20 07:21:51;;;;;;;;;;;22.40;67.40;;;;;;5021695;28;82366;-47
2021/07/20 07:24:18;;;;;;;;;;;22.40;67.40;;;;;;5023116;28;83615;-48
2021/07/20 07:26:45;;;;;;;;;;;22.40;67.50;;;;;;5022329;28;83968;-47
2021/07/20 07:29:12;;;;;;;;;;;22.40;67.50;;;;;;5018518;28;83456;-47
2021/07/20 07:31:38;;;;;;;;;;;22.40;67.40;;;;;;5024309;28;82007;-47
2021/07/20 07:34:04;;;;;;;;;;;22.40;67.40;;;;;;5023633;28;83051;-48
2021/07/20 07:36:30;;;;;;;;;;;22.40;67.40;;;;;;5027198;28;83684;-47
2021/07/20 07:39:01;;;;;;;;;;;22.40;67.30;;;;;;5022467;28;82087;-48
2021/07/20 07:41:28;;;;;;;;;;;22.40;67.40;;;;;;5020908;28;84823;-46
2021/07/20 07:43:54;;;;;;;;;;;22.40;67.50;;;;;;5019970;28;82155;-47
2021/07/20 07:46:20;;;;;;;;;;;22.40;67.50;;;;;;5020373;28;83979;-47
2021/07/20 07:48:46;;;;;;;;;;;22.40;67.60;;;;;;5023603;28;83607;-48
2021/07/20 07:51:12;;;;;;;;;;;22.40;67.60;;;;;;5023125;28;83681;-48
2021/07/20 07:53:40;;;;;;;;;;;22.40;67.60;;;;;;5023376;28;83039;-47
2021/07/20 07:56:06;;;;;;;;;;;22.40;67.50;;;;;;5020304;28;82578;-47
2021/07/20 07:58:31;;;;;;;;;;;22.40;67.40;;;;;;5023582;28;83756;-48
2021/07/20 08:01:01;;;;;;;;;;;22.40;67.40;;;;;;5024430;28;82856;-47
2021/07/20 08:03:30;;;;;;;;;;;22.50;67.40;;;;;;5019829;28;82129;-46
2021/07/20 08:06:00;;;;;;;;;;;22.50;67.50;;;;;;5020745;28;82137;-47
2021/07/20 08:08:25;;;;;;;;;;;22.40;67.40;;;;;;5021566;28;84662;-47
2021/07/20 08:10:51;;;;;;;;;;;22.40;67.50;;;;;;5022228;28;81362;-48
2021/07/20 08:13:18;;;;;;;;;;;22.50;67.40;;;;;;5021574;28;82330;-47
2021/07/20 08:15:46;;;;;;;;;;;22.50;67.60;;;;;;5019086;28;84253;-47
2021/07/20 08:18:11;;;;;;;;;;;22.50;67.40;;;;;;5022041;28;83154;-47
2021/07/20 08:20:37;;;;;;;;;;;22.50;67.40;;;;;;5024214;28;83357;-47
2021/07/20 08:23:03;;;;;;;;;;;22.40;67.40;;;;;;5020633;28;82116;-48
2021/07/20 08:25:30;;;;;;;;;;;22.50;67.40;;;;;;5020768;28;82091;-47
2021/07/20 08:28:00;;;;;;;;;;;22.40;67.40;;;;;;5024091;28;83204;-48
2021/07/20 08:30:28;;;;;;;;;;;22.50;67.60;;;;;;5018944;28;82866;-48
2021/07/20 08:32:58;;;;;;;;;;;22.50;67.60;;;;;;5022021;28;83274;-47
2021/07/20 08:35:25;;;;;;;;;;;22.40;67.60;;;;;;5022798;28;82298;-47
2021/07/20 08:37:52;;;;;;;;;;;22.40;67.60;;;;;;5019663;28;82128;-47
2021/07/20 08:40:27;;;;;;;;;;;22.40;67.70;;;;;;5023846;28;83901;-47
2021/07/20 08:42:58;;;;;;;;;;;22.40;67.60;;;;;;5025098;28;84682;-47
2021/07/20 08:45:25;;;;;;;;;;;22.50;67.70;;;;;;5022857;28;83673;-47
2021/07/20 08:47:53;;;;;;;;;;;22.40;67.50;;;;;;5026418;28;82132;-47
2021/07/20 08:50:29;;;;;;;;;;;22.50;67.60;;;;;;5023014;28;82072;-47
2021/07/20 08:52:55;;;;;;;;;;;22.50;67.50;;;;;;5022331;28;82171;-48
2021/07/20 08:55:23;;;;;;;;;;;22.50;67.50;;;;;;5023232;28;84569;-47
2021/07/20 08:57:56;;;;;;;;;;;22.50;67.60;;;;;;5024296;28;82094;-47
2021/07/20 09:00:26;;;;;;;;;;;22.50;67.60;;;;;;5026955;28;82886;-47
2021/07/20 09:03:00;;;;;;;;;;;22.50;67.40;;;;;;5026093;28;83512;-49
2021/07/20 09:05:32;;;;;;;;;;;22.50;67.50;;;;;;5024940;28;83036;-47
2021/07/20 09:08:04;;;;;;;;;;;22.50;67.40;;;;;;5025710;28;85085;-48
2021/07/20 09:10:40;;;;;;;;;;;22.50;67.50;;;;;;5025820;28;82223;-47
2021/07/20 09:13:09;;;;;;;;;;;22.50;67.50;;;;;;5024752;28;83106;-47
2021/07/20 09:15:35;;;;;;;;;;;22.50;67.40;;;;;;5024712;28;84692;-49
2021/07/20 09:18:23;;;;;;;;;;;22.50;67.60;;;;;;5024548;28;82152;-47
2021/07/20 09:20:52;;;;;;;;;;;22.50;67.50;;;;;;5026316;28;82747;-47
2021/07/20 09:23:17;;;;;;;;;;;22.50;67.60;;;;;;5022048;28;84104;-47
2021/07/20 09:25:48;;;;;;;;;;;22.50;67.50;;;;;;5023167;28;82804;-47
2021/07/20 09:28:17;;;;;;;;;;;22.50;67.50;;;;;;5028519;28;83080;-48
2021/07/20 09:30:46;;;;;;;;;;;22.50;67.50;;;;;;5023686;28;82097;-47
2021/07/20 09:33:24;;;;;;;;;;;22.60;67.60;;;;;;5024174;28;83842;-47
2021/07/20 09:36:08;;;;;;;;;;;22.50;67.40;;;;;;5021143;28;83857;-47
2021/07/20 09:38:53;;;;;;;;;;;22.50;67.50;;;;;;5023363;28;82118;-47
2021/07/20 09:41:37;;;;;;;;;;;22.50;67.70;;;;;;5024680;28;83919;-47
2021/07/20 09:44:15;;;;;;;;;;;22.50;67.50;;;;;;5022057;28;84729;-47
2021/07/20 09:46:41;;;;;;;;;;;22.60;67.70;;;;;;5024027;28;82079;-47
2021/07/20 09:49:13;;;;;;;;;;;22.50;67.80;;;;;;5024898;28;82084;-48
2021/07/20 09:51:51;;;;;;;;;;;22.60;67.90;;;;;;5024683;28;82404;-47
2021/07/20 09:54:40;;;;;;;;;;;22.60;67.60;;;;;;5023792;28;82143;-47
2021/07/20 09:57:24;;;;;;;;;;;22.60;67.80;;;;;;5026229;28;83778;-47
2021/07/20 10:00:08;;;;;;;;;;;22.60;67.80;;;;;;5022182;28;84767;-47
2021/07/20 10:02:40;;;;;;;;;;;22.60;67.60;;;;;;5023320;28;84918;-47
2021/07/20 10:05:11;;;;;;;;;;;22.70;68.00;;;;;;5021820;28;84908;-47
2021/07/20 10:07:40;;;;;;;;;;;22.70;68.10;;;;;;5025697;28;82037;-47
2021/07/20 10:10:05;;;;;;;;;;;22.70;67.90;;;;;;5022987;28;82069;-47
2021/07/20 10:12:53;;;;;;;;;;;22.70;68.10;;;;;;5026276;28;84096;-47
2021/07/20 10:15:22;;;;;;;;;;;22.60;68.10;;;;;;5021983;28;82110;-47
2021/07/20 10:17:53;;;;;;;;;;;22.60;68.20;;;;;;5023283;28;82480;-47
2021/07/20 10:20:22;;;;;;;;;;;22.70;68.10;;;;;;5022960;28;82128;-47
2021/07/20 10:23:11;;;;;;;;;;;22.70;68.20;;;;;;5024711;28;83599;-47
2021/07/20 10:25:42;;;;;;;;;;;22.70;67.90;;;;;;5023377;28;84656;-47
2021/07/20 10:28:10;;;;;;;;;;;22.70;68.00;;;;;;5021440;28;82120;-48
2021/07/20 10:30:37;;;;;;;;;;;22.70;67.90;;;;;;5023644;28;83095;-48
2021/07/20 10:33:35;;;;;;;;;;;22.70;67.90;;;;;;5021668;28;85006;-47
2021/07/20 10:36:03;;;;;;;;;;;22.70;68.00;;;;;;4993061;28;82088;-47
2021/07/20 10:38:54;;;;;;;;;;;22.70;67.90;;;;;;5021563;28;83629;-47
2021/07/20 10:41:26;;;;;;;;;;;22.70;68.00;;;;;;5021317;28;83395;-47
2021/07/20 10:43:51;;;;;;;;;;;22.70;68.00;;;;;;5025461;28;81958;-49
2021/07/20 10:46:20;;;;;;;;;;;22.70;68.00;;;;;;5024715;28;83162;-47
2021/07/20 10:48:48;;;;;;;;;;;22.80;67.90;;;;;;5021337;28;82194;-47
2021/07/20 10:51:14;;;;;;;;;;;22.80;68.00;;;;;;5021697;28;83059;-47
2021/07/20 10:53:50;;;;;;;;;;;22.80;68.00;;;;;;5022215;28;84216;-47
2021/07/20 10:56:16;;;;;;;;;;;22.80;67.90;;;;;;5020352;28;82124;-49
2021/07/20 10:59:08;;;;;;;;;;;22.80;68.00;;;;;;5027365;28;84446;-48
2021/07/20 11:01:57;;;;;;;;;;;22.80;67.90;;;;;;5023786;28;82127;-47
2021/07/20 11:04:45;;;;;;;;;;;22.80;67.90;;;;;;4994643;28;83666;-47
2021/07/20 11:07:13;;;;;;;;;;;22.80;67.90;;;;;;5020643;28;84631;-47
2021/07/20 11:09:39;;;;;;;;;;;22.80;67.70;;;;;;5024462;28;81464;-47
2021/07/20 11:12:06;;;;;;;;;;;22.90;67.90;;;;;;5024489;28;82096;-47
2021/07/20 11:14:37;;;;;;;;;;;22.90;67.80;;;;;;5021402;28;84505;-47
2021/07/20 11:17:02;;;;;;;;;;;22.90;67.80;;;;;;5020491;28;83048;-47
2021/07/20 11:19:28;;;;;;;;;;;22.80;67.90;;;;;;5021297;28;82593;-47
2021/07/20 11:21:55;;;;;;;;;;;22.90;67.90;;;;;;5024338;28;83088;-48
2021/07/20 11:24:21;;;;;;;;;;;22.90;67.80;;;;;;5020942;28;84937;-47
2021/07/20 11:26:47;;;;;;;;;;;22.90;67.50;;;;;;5023617;28;84487;-48
2021/07/20 11:29:13;;;;;;;;;;;22.90;67.30;;;;;;5024905;28;82251;-47
2021/07/20 11:31:49;;;;;;;;;;;23.00;67.50;;;;;;5025031;28;82681;-47
2021/07/20 11:34:18;;;;;;;;;;;23.00;67.50;;;;;;5022767;28;83389;-47
2021/07/20 11:36:44;;;;;;;;;;;23.00;67.50;;;;;;5024080;28;83385;-47
2021/07/20 11:39:13;;;;;;;;;;;23.00;67.30;;;;;;5024211;28;82099;-47
2021/07/20 11:41:42;;;;;;;;;;;23.00;67.50;;;;;;5019745;28;84222;-48
2021/07/20 11:44:27;;;;;;;;;;;23.00;67.40;;;;;;5024718;28;82237;-47
2021/07/20 11:46:58;;;;;;;;;;;23.00;67.50;;;;;;5021958;28;82601;-47
2021/07/20 11:49:28;;;;;;;;;;;23.00;67.60;;;;;;5022200;28;82129;-47
2021/07/20 11:52:00;;;;;;;;;;;23.00;67.40;;;;;;5020809;28;83794;-47
2021/07/20 11:54:45;;;;;;;;;;;23.00;67.40;;;;;;5020542;28;84541;-47
2021/07/20 11:57:43;;;;;;;;;;;23.00;67.50;;;;;;5019439;28;83676;-47
2021/07/20 12:00:14;;;;;;;;;;;23.10;67.40;;;;;;5022315;28;82026;-47
2021/07/20 12:02:58;;;;;;;;;;;23.00;67.40;;;;;;5020211;28;84526;-46
2021/07/20 12:05:32;;;;;;;;;;;23.10;67.60;;;;;;5025159;28;82115;-47
2021/07/20 12:08:10;;;;;;;;;;;23.10;67.40;;;;;;5022886;28;85577;-47
2021/07/20 12:10:45;;;;;;;;;;;23.10;67.30;;;;;;5019613;28;82114;-47
2021/07/20 12:13:14;;;;;;;;;;;23.20;67.40;;;;;;5019469;28;82130;-47
2021/07/20 12:15:40;;;;;;;;;;;23.20;67.00;;;;;;5019988;28;84184;-47
2021/07/20 12:18:06;;;;;;;;;;;23.20;67.00;;;;;;5019826;28;82116;-47
2021/07/20 12:20:32;;;;;;;;;;;23.20;67.00;;;;;;5019598;28;83305;-47
2021/07/20 12:22:58;;;;;;;;;;;23.20;66.90;;;;;;5019046;28;85207;-47
2021/07/20 12:25:24;;;;;;;;;;;23.20;66.80;;;;;;5024044;28;81406;-47
2021/07/20 12:27:51;;;;;;;;;;;23.20;66.60;;;;;;5025490;28;82140;-48
2021/07/20 12:30:18;;;;;;;;;;;23.20;66.60;;;;;;5022440;28;82104;-47
2021/07/20 12:32:45;;;;;;;;;;;23.30;66.30;;;;;;5020520;28;83047;-47
2021/07/20 12:35:12;;;;;;;;;;;23.30;66.40;;;;;;5021842;28;84662;-48
2021/07/20 12:37:40;;;;;;;;;;;23.20;66.50;;;;;;5020040;28;82103;-47
2021/07/20 12:40:09;;;;;;;;;;;23.20;66.70;;;;;;5018658;28;83802;-47
2021/07/20 12:42:39;;;;;;;;;;;23.20;67.00;;;;;;5020825;28;83068;-47
2021/07/20 12:45:05;;;;;;;;;;;23.20;66.30;;;;;;5020368;28;82120;-47
2021/07/20 12:47:38;;;;;;;;;;;23.30;66.30;;;;;;5020448;28;82865;-47
2021/07/20 12:50:04;;;;;;;;;;;23.30;66.10;;;;;;5026773;28;84146;-47
2021/07/20 12:52:32;;;;;;;;;;;23.30;66.30;;;;;;5021818;28;83787;-47
2021/07/20 12:54:58;;;;;;;;;;;23.40;66.50;;;;;;5018559;28;84607;-47
2021/07/20 12:57:24;;;;;;;;;;;23.30;66.30;;;;;;5022168;28;83024;-48
2021/07/20 12:59:50;;;;;;;;;;;23.40;66.50;;;;;;5021860;28;84963;-47
2021/07/20 13:02:17;;;;;;;;;;;23.40;66.40;;;;;;5020946;28;83045;-47
2021/07/20 13:04:43;;;;;;;;;;;23.40;66.50;;;;;;5020414;28;83690;-47
2021/07/20 13:07:12;;;;;;;;;;;23.40;66.50;;;;;;5022992;28;82135;-47
2021/07/20 13:09:38;;;;;;;;;;;23.40;66.40;;;;;;5018770;28;84616;-49
2021/07/20 13:12:04;;;;;;;;;;;23.50;66.40;;;;;;5021840;28;83770;-47
2021/07/20 13:14:35;;;;;;;;;;;23.50;66.30;;;;;;5018706;28;83938;-48
2021/07/20 13:17:00;;;;;;;;;;;23.50;66.10;;;;;;5023102;28;83335;-48
2021/07/20 13:19:26;;;;;;;;;;;23.50;66.20;;;;;;5022141;28;83779;-47
2021/07/20 13:21:51;;;;;;;;;;;23.50;66.00;;;;;;5017438;28;85634;-47
2021/07/20 13:24:17;;;;;;;;;;;23.60;66.30;;;;;;5021767;28;83513;-47
2021/07/20 13:26:43;;;;;;;;;;;23.60;66.20;;;;;;5022954;28;83889;-47
2021/07/20 13:29:09;;;;;;;;;;;23.60;66.30;;;;;;5025232;28;83353;-47
2021/07/20 13:31:38;;;;;;;;;;;23.60;66.10;;;;;;5023862;28;82132;-48
2021/07/20 13:34:05;;;;;;;;;;;23.60;66.00;;;;;;5028411;28;82616;-48
2021/07/20 13:36:31;;;;;;;;;;;23.70;65.60;;;;;;5025363;28;82122;-46
2021/07/20 13:38:58;;;;;;;;;;;23.70;65.60;;;;;;5024023;28;83744;-47
2021/07/20 13:41:24;;;;;;;;;;;23.70;65.50;;;;;;5022641;28;82409;-47
2021/07/20 13:43:54;;;;;;;;;;;23.70;65.80;;;;;;5023935;28;82212;-47
2021/07/20 13:46:20;;;;;;;;;;;23.70;65.80;;;;;;5023660;28;83061;-47
2021/07/20 13:48:47;;;;;;;;;;;23.70;65.70;;;;;;5021771;28;84651;-47
2021/07/20 13:51:14;;;;;;;;;;;23.80;65.60;;;;;;5026535;28;82058;-48
2021/07/20 13:53:42;;;;;;;;;;;23.80;65.60;;;;;;5027612;28;82099;-47
2021/07/20 13:56:28;;;;;;;;;;;23.80;65.60;;;;;;5022702;28;82216;-47
2021/07/20 13:58:54;;;;;;;;;;;23.80;65.90;;;;;;5023583;28;84266;-47
2021/07/20 14:01:20;;;;;;;;;;;23.80;65.60;;;;;;5022346;28;82300;-47
2021/07/20 14:03:46;;;;;;;;;;;23.80;65.60;;;;;;5021957;28;82656;-47
2021/07/20 14:06:12;;;;;;;;;;;23.80;65.10;;;;;;5026230;28;83140;-48
2021/07/20 14:08:38;;;;;;;;;;;23.80;65.00;;;;;;5024925;28;83546;-47
2021/07/20 14:11:04;;;;;;;;;;;23.80;65.00;;;;;;5024148;28;83054;-47
2021/07/20 14:13:30;;;;;;;;;;;23.80;65.00;;;;;;5025838;28;83374;-48
2021/07/20 14:15:57;;;;;;;;;;;23.80;65.30;;;;;;5027302;28;82664;-47
2021/07/20 14:18:23;;;;;;;;;;;23.90;65.10;;;;;;5022061;28;82224;-47
2021/07/20 14:20:48;;;;;;;;;;;23.90;64.90;;;;;;5021851;28;84429;-47
2021/07/20 14:23:14;;;;;;;;;;;24.00;64.70;;;;;;5021690;28;82090;-47
2021/07/20 14:25:49;;;;;;;;;;;24.10;64.80;;;;;;5020978;28;82931;-47
2021/07/20 14:28:15;;;;;;;;;;;24.10;64.50;;;;;;5022171;28;82282;-47